Time;durP1;ratioP1;P1;durP2;ratioP2;P2;SDS_P1;SDS_P2;PMS_P1;PMS_P2;Temp;Humidity;BMP_temperature;BMP_pressure;BME280_temperature;BME280_humidity;BME280_pressure;Samples;Min_cycle;Max_cycle;Signal;HPM_P1;HPM_P2
2021/06/16 00:01:15;;;;;;;1.20;0.85;;;28.60;45.50;;;;;;5066522;28;20294;-61
2021/06/16 00:03:41;;;;;;;0.90;0.80;;;28.50;45.00;;;;;;5062468;28;20040;-61
2021/06/16 00:06:06;;;;;;;1.95;0.95;;;28.50;45.10;;;;;;5048532;28;20365;-61
2021/06/16 00:08:32;;;;;;;0.88;0.73;;;28.40;45.00;;;;;;5056783;28;20021;-61
2021/06/16 00:10:58;;;;;;;1.08;0.77;;;28.40;45.10;;;;;;5057132;28;20096;-61
2021/06/16 00:13:24;;;;;;;1.48;0.80;;;28.40;45.20;;;;;;5059800;28;20052;-61
2021/06/16 00:15:51;;;;;;;1.38;0.90;;;28.40;45.20;;;;;;5063158;28;20047;-61
2021/06/16 00:18:17;;;;;;;1.02;0.70;;;28.30;45.10;;;;;;5062221;28;20148;-61
2021/06/16 00:20:42;;;;;;;1.15;0.80;;;28.30;45.20;;;;;;5059673;28;20103;-61
2021/06/16 00:23:08;;;;;;;1.35;0.80;;;28.30;45.20;;;;;;5046906;28;20037;-62
2021/06/16 00:25:34;;;;;;;0.77;0.70;;;28.30;45.20;;;;;;5047942;28;20017;-61
2021/06/16 00:28:01;;;;;;;0.68;0.60;;;28.30;45.20;;;;;;5068878;28;20066;-60
2021/06/16 00:30:27;;;;;;;1.02;0.82;;;28.30;45.20;;;;;;5067234;28;20031;-61
2021/06/16 00:32:53;;;;;;;1.27;0.80;;;28.20;45.20;;;;;;5063518;28;20029;-60
2021/06/16 00:35:20;;;;;;;1.23;0.90;;;28.20;45.20;;;;;;5054198;28;20044;-60
2021/06/16 00:37:51;;;;;;;1.20;0.80;;;28.20;45.20;;;;;;5052104;28;20029;-59
2021/06/16 00:40:21;;;;;;;1.15;0.80;;;28.20;45.20;;;;;;5047768;28;20056;-59
2021/06/16 00:42:47;;;;;;;1.42;0.80;;;28.20;45.20;;;;;;5046463;28;20033;-62
2021/06/16 00:45:13;;;;;;;1.25;0.77;;;28.20;45.20;;;;;;5067203;28;20017;-61
2021/06/16 00:47:40;;;;;;;0.93;0.80;;;28.10;45.20;;;;;;5058956;28;20107;-61
2021/06/16 00:50:07;;;;;;;1.33;0.80;;;28.10;45.20;;;;;;5057109;28;20037;-60
2021/06/16 00:52:34;;;;;;;1.10;0.80;;;28.10;45.20;;;;;;5062087;28;20085;-59
2021/06/16 00:54:59;;;;;;;0.98;0.73;;;28.10;45.20;;;;;;5052823;28;20028;-60
2021/06/16 00:57:25;;;;;;;0.80;0.70;;;28.10;45.20;;;;;;5064004;28;20107;-60
2021/06/16 01:00:20;;;;;;;1.08;0.80;;;28.00;45.20;;;;;;5068096;28;20028;-61
2021/06/16 01:02:52;;;;;;;1.23;0.70;;;28.00;45.20;;;;;;5065143;28;20180;-60
2021/06/16 01:05:23;;;;;;;1.77;0.90;;;28.00;45.20;;;;;;5062387;28;20036;-61
2021/06/16 01:07:56;;;;;;;0.90;0.77;;;28.00;45.20;;;;;;5047527;28;20708;-59
2021/06/16 01:10:23;;;;;;;1.30;0.88;;;28.00;45.20;;;;;;5048147;28;20024;-61
2021/06/16 01:12:55;;;;;;;1.40;0.90;;;28.00;45.30;;;;;;5045120;28;20040;-59
2021/06/16 01:15:23;;;;;;;1.20;0.82;;;27.90;45.20;;;;;;5051652;28;20036;-60
2021/06/16 01:17:52;;;;;;;1.48;0.80;;;27.90;45.20;;;;;;5055124;28;20384;-61
2021/06/16 01:20:34;;;;;;;0.80;0.80;;;27.90;45.20;;;;;;5050747;28;20032;-60
2021/06/16 01:23:09;;;;;;;1.40;0.80;;;27.90;45.20;;;;;;5052610;28;20032;-61
2021/06/16 01:25:38;;;;;;;1.30;0.90;;;27.90;45.20;;;;;;5048579;28;20448;-60
2021/06/16 01:28:04;;;;;;;0.90;0.70;;;27.90;45.30;;;;;;5052099;28;20104;-60
2021/06/16 01:30:32;;;;;;;1.10;0.80;;;27.90;45.20;;;;;;5046279;28;20143;-61
2021/06/16 01:32:59;;;;;;;0.90;0.70;;;27.80;45.20;;;;;;5048060;28;20115;-61
2021/06/16 01:35:30;;;;;;;1.27;0.80;;;27.80;45.20;;;;;;5067688;28;20471;-61
2021/06/16 01:38:01;;;;;;;1.10;0.80;;;27.80;45.20;;;;;;5065796;28;20093;-60
2021/06/16 01:40:28;;;;;;;1.25;0.90;;;27.80;45.20;;;;;;5052790;28;20452;-61
2021/06/16 01:42:57;;;;;;;1.42;0.90;;;27.80;45.30;;;;;;5058913;28;20025;-60
2021/06/16 01:45:23;;;;;;;1.05;0.80;;;27.80;45.20;;;;;;5059084;28;20131;-61
2021/06/16 01:47:50;;;;;;;1.30;0.85;;;27.80;45.70;;;;;;5066080;28;20056;-60
2021/06/16 01:50:19;;;;;;;1.05;0.80;;;27.80;45.20;;;;;;5054173;28;20116;-60
2021/06/16 01:52:47;;;;;;;1.17;0.90;;;27.70;45.20;;;;;;5064922;28;20487;-60
2021/06/16 01:55:14;;;;;;;1.00;0.77;;;27.70;45.20;;;;;;5063687;28;20040;-60
2021/06/16 01:57:40;;;;;;;1.30;0.80;;;27.70;45.20;;;;;;5064945;28;20033;-61
2021/06/16 02:00:07;;;;;;;1.02;0.80;;;27.70;45.20;;;;;;5066797;28;20021;-61
2021/06/16 02:02:33;;;;;;;1.48;0.90;;;27.70;45.20;;;;;;5061812;28;20048;-61
2021/06/16 02:04:59;;;;;;;0.93;0.73;;;27.70;45.20;;;;;;5055779;28;20071;-61
2021/06/16 02:07:29;;;;;;;0.90;0.80;;;27.70;45.30;;;;;;5047948;28;20104;-60
2021/06/16 02:09:56;;;;;;;1.58;1.00;;;27.70;45.80;;;;;;5051224;28;20064;-60
2021/06/16 02:12:22;;;;;;;1.13;0.80;;;27.60;45.20;;;;;;5057133;28;20056;-60
2021/06/16 02:14:56;;;;;;;1.13;0.80;;;27.70;45.30;;;;;;5052429;28;20119;-61
2021/06/16 02:17:28;;;;;;;0.80;0.80;;;27.60;45.20;;;;;;5048971;28;20032;-60
2021/06/16 02:19:54;;;;;;;1.17;0.90;;;27.60;45.20;;;;;;5067918;28;20037;-60
2021/06/16 02:22:23;;;;;;;1.02;0.75;;;27.60;45.20;;;;;;5067241;28;20029;-60
2021/06/16 02:24:49;;;;;;;0.85;0.70;;;27.60;45.20;;;;;;5069297;28;20399;-60
2021/06/16 02:27:15;;;;;;;1.00;0.80;;;27.60;45.20;;;;;;5058277;28;20028;-59
2021/06/16 02:29:41;;;;;;;1.15;0.90;;;27.60;45.20;;;;;;5069946;28;20055;-60
2021/06/16 02:32:07;;;;;;;1.50;0.88;;;27.60;45.20;;;;;;5047677;28;20565;-60
2021/06/16 02:34:33;;;;;;;1.75;0.90;;;27.60;45.20;;;;;;5067150;28;20025;-59
2021/06/16 02:37:01;;;;;;;1.20;0.80;;;27.50;45.10;;;;;;5050099;28;20460;-60
2021/06/16 02:39:49;;;;;;;1.20;0.80;;;27.50;45.70;;;;;;5050196;28;20029;-60
2021/06/16 02:42:16;;;;;;;1.52;0.90;;;27.50;45.20;;;;;;5046593;28;20029;-60
2021/06/16 02:44:45;;;;;;;1.20;0.82;;;27.50;45.10;;;;;;5050532;28;20013;-60
2021/06/16 02:47:12;;;;;;;1.38;0.85;;;27.50;45.20;;;;;;5056575;28;20519;-60
2021/06/16 02:49:47;;;;;;;1.23;0.80;;;27.50;45.10;;;;;;5067909;28;20033;-60
2021/06/16 02:52:16;;;;;;;1.13;0.80;;;27.50;45.20;;;;;;5068291;28;20024;-61
2021/06/16 02:54:44;;;;;;;1.27;0.90;;;27.50;45.10;;;;;;5062894;28;20028;-60
2021/06/16 02:57:13;;;;;;;1.80;1.02;;;27.50;45.10;;;;;;5060568;28;20060;-60
2021/06/16 02:59:39;;;;;;;1.27;0.90;;;27.50;45.10;;;;;;5050446;28;20033;-61
2021/06/16 03:02:05;;;;;;;1.45;0.90;;;27.40;45.10;;;;;;5052232;28;20095;-60
2021/06/16 03:04:31;;;;;;;1.23;0.90;;;27.40;45.10;;;;;;5068863;28;20059;-60
2021/06/16 03:06:58;;;;;;;0.98;0.82;;;27.40;45.10;;;;;;5069423;28;20052;-61
2021/06/16 03:09:24;;;;;;;2.70;1.00;;;27.40;45.10;;;;;;5068756;28;20024;-60
2021/06/16 03:11:51;;;;;;;1.08;0.90;;;27.40;45.20;;;;;;5062767;28;20108;-60
2021/06/16 03:14:24;;;;;;;1.10;0.90;;;27.40;45.20;;;;;;5060333;28;20076;-59
2021/06/16 03:16:52;;;;;;;1.20;1.00;;;27.40;45.20;;;;;;5048435;28;20021;-61
2021/06/16 03:19:23;;;;;;;1.07;0.90;;;27.30;45.10;;;;;;5049724;28;20578;-61
2021/06/16 03:21:49;;;;;;;1.60;0.95;;;27.40;45.20;;;;;;5055995;28;20249;-60
2021/06/16 03:24:18;;;;;;;1.60;1.00;;;27.30;45.20;;;;;;5068532;28;20107;-60
2021/06/16 03:26:44;;;;;;;;;;;27.30;45.20;;;;;;5062596;28;20021;-60
2021/06/16 03:29:11;;;;;;;1.80;1.00;;;27.30;45.20;;;;;;5069478;28;19912;-61
2021/06/16 03:31:41;;;;;;;1.63;1.05;;;27.30;45.20;;;;;;5067318;28;20618;-60
2021/06/16 03:34:07;;;;;;;1.33;0.90;;;27.20;45.20;;;;;;5066259;28;20409;-60
2021/06/16 03:36:37;;;;;;;1.42;1.00;;;27.30;45.30;;;;;;5061752;28;20047;-60
2021/06/16 03:39:05;;;;;;;1.70;1.00;;;27.20;45.20;;;;;;5067965;28;20063;-60
2021/06/16 03:41:31;;;;;;;0.90;0.80;;;27.20;45.20;;;;;;5067472;28;20062;-60
2021/06/16 03:43:58;;;;;;;1.45;1.00;;;27.20;45.20;;;;;;5063400;28;20044;-60
2021/06/16 03:46:25;;;;;;;1.40;0.98;;;27.20;45.20;;;;;;5061204;28;20032;-60
2021/06/16 03:48:53;;;;;;;1.33;1.00;;;27.20;45.30;;;;;;5066185;28;20073;-60
2021/06/16 03:51:19;;;;;;;1.30;1.00;;;27.20;45.30;;;;;;5068239;28;20041;-60
2021/06/16 03:53:47;;;;;;;1.70;1.10;;;27.10;45.20;;;;;;5057343;28;20044;-60
2021/06/16 03:56:12;;;;;;;1.15;0.90;;;27.10;45.20;;;;;;5065941;28;20056;-60
2021/06/16 03:58:41;;;;;;;1.35;0.90;;;27.10;45.30;;;;;;5067344;28;20063;-61
2021/06/16 04:01:12;;;;;;;1.00;0.90;;;27.10;45.30;;;;;;5067106;28;20079;-59
2021/06/16 04:03:37;;;;;;;1.02;0.88;;;27.10;45.30;;;;;;5057713;28;20040;-59
2021/06/16 04:06:05;;;;;;;1.38;1.10;;;27.10;45.00;;;;;;5056540;28;20021;-61
2021/06/16 04:08:31;;;;;;;1.85;1.25;;;27.00;43.80;;;;;;5047540;28;20071;-60
2021/06/16 04:10:57;;;;;;;2.03;1.20;;;26.90;43.40;;;;;;5047038;28;20057;-61
2021/06/16 04:13:22;;;;;;;1.95;1.38;;;26.80;43.40;;;;;;5057281;28;20090;-60
2021/06/16 04:15:48;;;;;;;2.38;1.35;;;26.80;43.30;;;;;;5050027;28;20037;-61
2021/06/16 04:18:14;;;;;;;3.25;1.55;;;26.70;43.30;;;;;;5047821;28;20029;-61
2021/06/16 04:20:40;;;;;;;3.58;1.50;;;26.60;43.40;;;;;;5052583;28;20120;-60
2021/06/16 04:23:05;;;;;;;2.47;1.40;;;26.60;43.50;;;;;;5049075;28;20476;-60
2021/06/16 04:25:31;;;;;;;2.78;1.45;;;26.60;43.50;;;;;;5047694;28;20036;-60
2021/06/16 04:27:57;;;;;;;3.67;1.50;;;26.60;43.60;;;;;;5061684;28;20038;-59
2021/06/16 04:30:24;;;;;;;2.65;1.70;;;26.60;43.60;;;;;;5053078;28;20040;-63
2021/06/16 04:32:51;;;;;;;3.47;1.70;;;26.50;43.70;;;;;;5061284;28;20043;-60
2021/06/16 04:35:17;;;;;;;2.53;1.60;;;26.50;43.80;;;;;;5066624;28;20067;-60
2021/06/16 04:37:43;;;;;;;2.33;1.65;;;26.50;43.90;;;;;;5065903;28;20024;-60
2021/06/16 04:40:10;;;;;;;3.33;1.63;;;26.40;44.00;;;;;;5066670;28;20024;-60
2021/06/16 04:42:36;;;;;;;2.55;1.58;;;26.40;44.20;;;;;;5052174;28;20094;-60
2021/06/16 04:45:03;;;;;;;2.58;1.80;;;26.30;44.20;;;;;;5062227;28;20386;-60
2021/06/16 04:47:28;;;;;;;3.97;1.60;;;26.30;44.60;;;;;;5053283;28;20021;-61
2021/06/16 04:49:54;;;;;;;3.15;1.70;;;26.20;44.60;;;;;;5066677;28;20047;-60
2021/06/16 04:52:20;;;;;;;2.80;1.65;;;26.20;44.80;;;;;;5059228;28;20029;-60
2021/06/16 04:54:45;;;;;;;2.92;1.67;;;26.20;44.80;;;;;;5068019;28;20031;-60
2021/06/16 04:57:11;;;;;;;3.13;1.60;;;26.10;44.90;;;;;;5062881;28;20028;-60
2021/06/16 04:59:36;;;;;;;3.05;1.70;;;26.10;45.00;;;;;;5068390;28;20104;-61
2021/06/16 05:02:03;;;;;;;2.95;1.90;;;26.10;45.10;;;;;;5048374;28;20044;-60
2021/06/16 05:04:28;;;;;;;4.65;1.90;;;26.10;45.30;;;;;;5048967;28;20535;-62
2021/06/16 05:06:57;;;;;;;2.80;1.65;;;26.00;45.40;;;;;;5051231;28;20154;-61
2021/06/16 05:09:23;;;;;;;3.13;1.77;;;26.00;45.50;;;;;;5063166;28;20040;-58
2021/06/16 05:11:48;;;;;;;4.97;2.03;;;26.00;45.60;;;;;;5046255;28;20423;-60
2021/06/16 05:14:15;;;;;;;4.30;2.30;;;26.00;45.70;;;;;;5048195;28;20081;-60
2021/06/16 05:16:41;;;;;;;4.05;2.08;;;25.90;45.80;;;;;;5058579;28;20032;-60
2021/06/16 05:19:14;;;;;;;3.33;2.10;;;25.90;46.00;;;;;;5056794;28;20077;-59
2021/06/16 05:21:40;;;;;;;4.30;2.25;;;25.80;46.60;;;;;;5063289;28;20043;-61
2021/06/16 05:24:06;;;;;;;3.28;2.10;;;25.80;46.20;;;;;;5046094;28;20451;-61
2021/06/16 05:26:31;;;;;;;3.10;2.10;;;25.80;46.20;;;;;;5051208;28;20044;-59
2021/06/16 05:28:57;;;;;;;3.00;2.08;;;25.70;46.60;;;;;;5063299;28;20028;-60
2021/06/16 05:31:23;;;;;;;2.80;1.70;;;25.70;46.80;;;;;;5064819;28;20059;-59
2021/06/16 05:33:48;;;;;;;2.47;1.73;;;25.70;46.60;;;;;;5064158;28;20052;-60
2021/06/16 05:36:14;;;;;;;2.97;1.85;;;25.60;46.60;;;;;;5066636;28;20025;-60
2021/06/16 05:38:40;;;;;;;2.60;1.73;;;25.60;46.60;;;;;;5062051;28;20047;-59
2021/06/16 05:41:06;;;;;;;2.60;1.80;;;25.60;46.60;;;;;;5060954;28;20028;-60
2021/06/16 05:43:32;;;;;;;4.00;1.95;;;25.50;46.60;;;;;;5062740;28;20194;-62
2021/06/16 05:45:58;;;;;;;2.40;1.70;;;25.50;46.70;;;;;;5065497;28;20032;-61
2021/06/16 05:48:23;;;;;;;2.85;1.70;;;25.50;46.70;;;;;;5056068;28;20032;-60
2021/06/16 05:50:49;;;;;;;2.65;1.55;;;25.50;46.80;;;;;;5057411;28;20029;-60
2021/06/16 05:53:15;;;;;;;2.80;1.50;;;25.60;46.80;;;;;;5053586;28;20040;-59
2021/06/16 05:55:40;;;;;;;2.47;1.50;;;25.60;46.80;;;;;;5052339;28;20047;-59
2021/06/16 05:58:06;;;;;;;2.00;1.40;;;25.70;47.20;;;;;;5066351;28;20042;-61
2021/06/16 06:00:31;;;;;;;3.90;1.80;;;25.70;46.60;;;;;;5065306;28;20035;-60
2021/06/16 06:02:57;;;;;;;1.95;1.50;;;25.70;46.40;;;;;;5062653;28;20086;-59
2021/06/16 06:05:23;;;;;;;2.15;1.48;;;25.80;46.40;;;;;;5060290;28;20070;-59
2021/06/16 06:07:48;;;;;;;2.30;1.20;;;25.80;46.30;;;;;;5067638;28;20024;-62
2021/06/16 06:10:14;;;;;;;2.00;1.25;;;25.80;46.20;;;;;;5069003;28;20020;-60
2021/06/16 06:12:40;;;;;;;2.08;1.40;;;25.90;46.20;;;;;;5057776;28;20452;-61
2021/06/16 06:15:06;;;;;;;2.30;1.50;;;25.90;46.10;;;;;;5065327;28;20056;-60
2021/06/16 06:17:33;;;;;;;1.80;1.30;;;25.90;46.00;;;;;;5065465;28;20074;-60
2021/06/16 06:19:59;;;;;;;2.50;1.40;;;26.00;46.00;;;;;;5067859;28;20032;-61
2021/06/16 06:22:24;;;;;;;2.33;1.40;;;26.00;45.90;;;;;;5055287;28;20040;-60
2021/06/16 06:24:50;;;;;;;2.20;1.55;;;26.00;45.80;;;;;;5059803;28;20025;-58
2021/06/16 06:27:16;;;;;;;2.53;1.50;;;26.00;45.80;;;;;;5058219;28;20051;-59
2021/06/16 06:29:41;;;;;;;3.08;1.40;;;26.10;45.80;;;;;;5066145;28;20024;-59
2021/06/16 06:32:07;;;;;;;1.90;1.33;;;26.10;45.80;;;;;;5066243;28;20113;-60
2021/06/16 06:34:33;;;;;;;2.10;1.50;;;26.10;45.70;;;;;;5065875;28;20028;-59
2021/06/16 06:36:58;;;;;;;2.40;1.52;;;26.10;45.70;;;;;;5047917;28;20032;-60
2021/06/16 06:39:24;;;;;;;1.80;1.40;;;26.10;45.70;;;;;;5066089;28;20048;-60
2021/06/16 06:41:50;;;;;;;2.03;1.40;;;26.20;45.70;;;;;;5067811;28;20127;-60
2021/06/16 06:44:15;;;;;;;2.67;1.63;;;26.20;45.60;;;;;;5066561;28;20031;-61
2021/06/16 06:46:41;;;;;;;3.03;1.60;;;26.20;45.60;;;;;;5061537;28;20452;-58
2021/06/16 06:49:06;;;;;;;2.50;1.63;;;26.20;45.50;;;;;;5062170;28;20032;-61
2021/06/16 06:51:32;;;;;;;2.22;1.45;;;26.30;45.50;;;;;;5068886;28;20029;-60
2021/06/16 06:53:58;;;;;;;2.50;1.55;;;26.30;45.50;;;;;;5068771;28;20482;-60
2021/06/16 06:56:23;;;;;;;2.10;1.50;;;26.30;45.40;;;;;;5068128;28;20024;-59
2021/06/16 06:58:49;;;;;;;2.35;1.48;;;26.30;45.40;;;;;;5056862;28;20091;-60
2021/06/16 07:01:15;;;;;;;1.83;1.38;;;26.30;45.30;;;;;;5048060;28;20476;-60
2021/06/16 07:03:41;;;;;;;2.33;1.40;;;26.40;45.40;;;;;;5063443;28;20032;-59
2021/06/16 07:06:06;;;;;;;1.98;1.50;;;26.40;45.90;;;;;;5068149;28;20620;-60
2021/06/16 07:08:32;;;;;;;2.10;1.40;;;26.40;45.30;;;;;;5061016;28;20025;-59
2021/06/16 07:10:58;;;;;;;2.78;1.60;;;26.50;45.30;;;;;;5061217;28;20061;-60
2021/06/16 07:13:23;;;;;;;2.03;1.42;;;26.50;45.30;;;;;;5067744;28;20119;-59
2021/06/16 07:15:49;;;;;;;2.00;1.40;;;26.50;45.30;;;;;;5067020;28;20040;-61
2021/06/16 07:18:15;;;;;;;1.88;1.30;;;26.50;45.20;;;;;;5067704;28;20028;-60
2021/06/16 07:20:40;;;;;;;2.03;1.33;;;26.60;45.30;;;;;;5050735;28;20033;-62
2021/06/16 07:23:06;;;;;;;1.75;1.30;;;26.60;45.20;;;;;;5063212;28;20040;-59
2021/06/16 07:25:32;;;;;;;1.70;1.17;;;26.60;45.20;;;;;;5067499;28;20024;-61
2021/06/16 07:27:57;;;;;;;1.92;1.40;;;26.60;45.10;;;;;;5066156;28;20039;-59
2021/06/16 07:30:23;;;;;;;2.33;1.50;;;26.60;45.10;;;;;;5059347;28;20043;-59
2021/06/16 07:32:49;;;;;;;2.05;1.30;;;26.60;45.10;;;;;;5061441;28;20037;-61
2021/06/16 07:35:16;;;;;;;1.77;1.33;;;26.60;45.10;;;;;;5065815;28;20385;-60
2021/06/16 07:37:42;;;;;;;1.98;1.30;;;26.70;45.10;;;;;;5066230;28;20040;-61
2021/06/16 07:40:09;;;;;;;1.70;1.30;;;26.70;45.10;;;;;;5060186;28;20036;-61
2021/06/16 07:42:39;;;;;;;1.85;1.40;;;26.70;45.10;;;;;;5059365;28;20039;-59
2021/06/16 07:45:07;;;;;;;1.70;1.23;;;26.70;45.00;;;;;;5063624;28;20032;-60
2021/06/16 07:47:32;;;;;;;2.40;1.45;;;26.70;45.00;;;;;;5058691;28;20159;-61
2021/06/16 07:49:58;;;;;;;1.92;1.30;;;26.70;45.00;;;;;;5059668;28;20776;-60
2021/06/16 07:52:24;;;;;;;1.63;1.20;;;26.80;45.10;;;;;;5050273;28;20032;-62
2021/06/16 07:54:49;;;;;;;2.47;1.30;;;26.80;45.00;;;;;;5064439;28;20024;-59
2021/06/16 07:57:15;;;;;;;2.08;1.40;;;26.80;45.00;;;;;;5062509;28;20102;-61
2021/06/16 07:59:41;;;;;;;1.85;1.42;;;26.80;45.00;;;;;;5053317;28;20063;-60
2021/06/16 08:02:07;;;;;;;1.48;1.20;;;26.80;44.90;;;;;;5051596;28;20047;-61
2021/06/16 08:04:36;;;;;;;1.40;1.20;;;26.90;45.00;;;;;;5065999;28;20013;-60
2021/06/16 08:07:03;;;;;;;3.25;1.20;;;26.90;45.00;;;;;;5054725;28;20103;-60
2021/06/16 08:09:28;;;;;;;2.72;1.30;;;26.90;45.10;;;;;;5053946;28;20036;-61
2021/06/16 08:11:54;;;;;;;1.55;1.20;;;26.90;45.30;;;;;;5058250;28;20029;-61
2021/06/16 08:14:20;;;;;;;1.85;1.30;;;26.90;45.10;;;;;;5065236;28;20036;-60
2021/06/16 08:16:45;;;;;;;1.60;1.20;;;27.00;45.20;;;;;;5053452;28;20025;-61
2021/06/16 08:19:11;;;;;;;1.95;1.20;;;27.00;45.20;;;;;;5051377;28;20029;-60
2021/06/16 08:21:36;;;;;;;1.73;1.13;;;26.90;45.10;;;;;;5049956;28;20028;-62
2021/06/16 08:24:02;;;;;;;1.70;1.20;;;27.00;45.30;;;;;;5047575;28;20040;-59
2021/06/16 08:26:28;;;;;;;3.03;1.25;;;27.00;45.30;;;;;;5052017;28;20016;-59
2021/06/16 08:28:53;;;;;;;1.65;1.20;;;27.00;45.20;;;;;;5065786;28;20078;-60
2021/06/16 08:31:19;;;;;;;1.73;1.40;;;27.00;45.10;;;;;;5063696;28;20029;-61
2021/06/16 08:33:45;;;;;;;1.50;1.20;;;27.00;45.10;;;;;;5051059;28;20117;-59
2021/06/16 08:36:10;;;;;;;2.03;1.30;;;27.00;45.10;;;;;;5057075;28;20125;-60
2021/06/16 08:38:36;;;;;;;2.03;1.30;;;27.00;45.00;;;;;;5063851;28;20051;-60
2021/06/16 08:41:05;;;;;;;2.72;1.30;;;27.00;45.00;;;;;;5052470;28;20024;-61
2021/06/16 08:43:35;;;;;;;;;;;27.00;45.10;;;;;;5053295;28;20060;-60
2021/06/16 08:46:02;;;;;;;;;;;27.10;45.10;;;;;;5054860;28;19912;-61
2021/06/16 08:48:28;;;;;;;1.40;1.20;;;27.10;45.10;;;;;;5047223;28;19908;-61
2021/06/16 08:50:53;;;;;;;2.28;1.20;;;27.10;45.10;;;;;;5045891;28;20032;-61
2021/06/16 08:53:19;;;;;;;3.40;1.45;;;27.10;45.10;;;;;;5058050;28;20028;-61
2021/06/16 08:55:44;;;;;;;1.73;1.30;;;27.10;45.10;;;;;;5067061;28;20031;-61
2021/06/16 08:58:10;;;;;;;1.42;1.10;;;27.10;45.10;;;;;;5063990;28;20075;-61
2021/06/16 09:00:36;;;;;;;1.83;1.30;;;27.10;45.10;;;;;;5066239;28;20048;-60
2021/06/16 09:03:02;;;;;;;1.60;1.20;;;27.10;45.10;;;;;;5058242;28;20076;-62
2021/06/16 09:05:38;;;;;;;1.73;1.27;;;27.10;45.00;;;;;;5055054;28;20448;-61
2021/06/16 09:08:17;;;;;;;2.13;1.50;;;27.10;45.10;;;;;;5056346;28;20174;-60
2021/06/16 09:10:47;;;;;;;2.20;1.50;;;27.10;45.40;;;;;;5062003;28;20091;-60
2021/06/16 09:13:33;;;;;;;2.42;1.60;;;27.10;45.50;;;;;;5057578;28;20039;-59
2021/06/16 09:16:01;;;;;;;2.72;1.60;;;27.10;45.60;;;;;;5047076;28;20025;-60
2021/06/16 09:18:27;;;;;;;3.15;1.40;;;27.10;45.50;;;;;;5057354;28;20186;-62
2021/06/16 09:20:56;;;;;;;1.70;1.30;;;27.20;45.70;;;;;;5061222;28;20081;-62
2021/06/16 09:23:28;;;;;;;2.72;1.60;;;27.20;45.70;;;;;;5065106;28;20047;-59
2021/06/16 09:26:04;;;;;;;2.20;1.40;;;27.20;45.70;;;;;;5065101;28;20032;-59
2021/06/16 09:28:44;;;;;;;1.80;1.30;;;27.20;45.70;;;;;;5062308;28;20478;-59
2021/06/16 09:31:12;;;;;;;1.88;1.38;;;27.20;45.70;;;;;;5065430;28;20032;-60
2021/06/16 09:33:38;;;;;;;1.67;1.20;;;27.20;46.00;;;;;;5046018;28;20107;-57
2021/06/16 09:36:13;;;;;;;2.03;1.40;;;27.20;45.80;;;;;;5052558;28;20036;-59
2021/06/16 09:38:39;;;;;;;2.38;1.23;;;27.20;45.90;;;;;;5056308;28;20468;-59
2021/06/16 09:41:11;;;;;;;1.60;1.30;;;27.30;46.30;;;;;;5056438;28;20044;-59
2021/06/16 09:43:39;;;;;;;1.65;1.35;;;27.30;46.00;;;;;;5049557;28;20087;-61
2021/06/16 09:46:07;;;;;;;1.77;1.45;;;27.30;46.00;;;;;;5048959;28;20052;-60
2021/06/16 09:48:39;;;;;;;2.42;1.40;;;27.30;46.40;;;;;;5057546;28;20044;-61
2021/06/16 09:51:13;;;;;;;2.40;1.50;;;27.30;46.20;;;;;;5062979;28;20056;-63
2021/06/16 09:54:18;;;;;;;1.75;1.40;;;27.40;46.40;;;;;;5059542;28;20032;-61
2021/06/16 09:56:44;;;;;;;1.85;1.40;;;27.40;46.10;;;;;;5056528;28;20407;-59
2021/06/16 09:59:38;;;;;;;1.63;1.30;;;27.40;46.00;;;;;;5048876;28;20024;-58
2021/06/16 10:02:04;;;;;;;1.60;1.20;;;27.40;46.00;;;;;;5044513;28;20153;-58
2021/06/16 10:04:31;;;;;;;1.80;1.30;;;27.40;46.50;;;;;;5047964;28;20032;-60
2021/06/16 10:07:19;;;;;;;2.15;1.25;;;27.40;46.00;;;;;;5054799;28;20123;-58
2021/06/16 10:09:58;;;;;;;2.05;1.30;;;27.40;46.10;;;;;;5051396;28;20379;-59
2021/06/16 10:12:25;;;;;;;;;;;27.40;46.10;;;;;;5054249;28;20043;-59
2021/06/16 10:14:52;;;;;;;2.47;1.30;;;27.50;46.10;;;;;;5054801;28;19916;-59
2021/06/16 10:17:17;;;;;;;1.35;1.05;;;27.50;46.00;;;;;;5055352;28;20710;-61
2021/06/16 10:19:46;;;;;;;1.77;1.20;;;27.50;45.90;;;;;;5067135;28;20081;-61
2021/06/16 10:22:13;;;;;;;1.98;1.45;;;27.50;45.90;;;;;;5061397;28;20021;-61
2021/06/16 10:24:40;;;;;;;2.10;1.23;;;27.50;45.90;;;;;;5065458;28;20143;-61
2021/06/16 10:27:09;;;;;;;2.20;1.40;;;27.60;45.90;;;;;;5052064;28;20040;-62
2021/06/16 10:29:40;;;;;;;1.75;1.30;;;27.50;45.90;;;;;;5058103;28;20105;-61
2021/06/16 10:32:08;;;;;;;2.70;1.20;;;27.60;45.90;;;;;;5057447;28;20082;-61
2021/06/16 10:34:51;;;;;;;1.88;1.27;;;27.60;46.00;;;;;;5057821;28;20029;-62
2021/06/16 10:37:36;;;;;;;1.42;1.17;;;27.60;46.00;;;;;;5053801;28;20087;-61
2021/06/16 10:40:17;;;;;;;2.03;1.30;;;27.60;46.40;;;;;;5050763;28;20132;-60
2021/06/16 10:43:05;;;;;;;1.80;1.20;;;27.60;45.90;;;;;;5054478;28;20078;-61
2021/06/16 10:45:35;;;;;;;1.98;1.30;;;27.70;45.90;;;;;;5057678;28;20043;-61
2021/06/16 10:48:10;;;;;;;1.92;1.17;;;27.60;45.80;;;;;;5067111;28;20028;-61
2021/06/16 10:50:50;;;;;;;1.67;1.35;;;27.70;46.00;;;;;;5061702;28;20044;-61
2021/06/16 10:53:19;;;;;;;;;;;27.70;46.00;;;;;;5052564;28;20154;-61
2021/06/16 10:55:57;;;;;;;2.00;1.20;;;27.70;46.20;;;;;;5060499;28;19912;-61
2021/06/16 10:58:30;;;;;;;1.70;1.10;;;27.70;46.40;;;;;;5059694;28;20028;-62
2021/06/16 11:01:18;;;;;;;1.73;1.30;;;27.80;46.40;;;;;;5054404;28;20059;-61
2021/06/16 11:03:55;;;;;;;1.50;1.10;;;27.80;46.30;;;;;;5052175;28;20036;-60
2021/06/16 11:06:35;;;;;;;1.90;1.20;;;27.80;46.00;;;;;;5056541;28;20020;-59
2021/06/16 11:09:05;;;;;;;1.08;0.95;;;27.80;46.00;;;;;;5056613;28;20033;-61
2021/06/16 11:11:53;;;;;;;1.58;1.10;;;27.80;46.00;;;;;;5058319;28;20467;-60
2021/06/16 11:14:37;;;;;;;1.88;1.20;;;27.80;46.10;;;;;;5057829;28;20025;-60
2021/06/16 11:17:07;;;;;;;1.50;1.10;;;27.90;46.10;;;;;;5058338;28;20035;-61
2021/06/16 11:19:36;;;;;;;1.92;1.20;;;27.80;46.00;;;;;;5060108;28;20051;-60
2021/06/16 11:22:24;;;;;;;1.73;1.30;;;27.90;46.00;;;;;;5055797;28;20057;-63
2021/06/16 11:25:15;;;;;;;1.52;1.23;;;27.90;46.00;;;;;;5045495;28;20048;-60
2021/06/16 11:27:50;;;;;;;1.90;1.30;;;27.90;46.00;;;;;;5057456;28;20111;-61
2021/06/16 11:30:27;;;;;;;1.48;1.15;;;27.90;45.90;;;;;;5061700;28;20024;-61
2021/06/16 11:33:11;;;;;;;1.60;1.20;;;27.90;45.90;;;;;;5052473;28;20104;-60
2021/06/16 11:35:42;;;;;;;1.50;1.10;;;27.90;45.80;;;;;;5053034;28;20032;-61
2021/06/16 11:38:10;;;;;;;2.20;1.20;;;27.90;46.30;;;;;;5058726;28;20078;-61
2021/06/16 11:40:36;;;;;;;1.30;1.00;;;27.90;45.80;;;;;;5064007;28;20036;-61
2021/06/16 11:43:02;;;;;;;1.10;1.00;;;27.90;45.80;;;;;;5059639;28;20882;-62
2021/06/16 11:45:32;;;;;;;1.27;1.00;;;28.00;45.90;;;;;;5052929;28;20029;-60
2021/06/16 11:48:00;;;;;;;1.65;1.20;;;28.00;46.00;;;;;;5056618;28;20033;-60
2021/06/16 11:50:31;;;;;;;1.80;1.20;;;28.00;46.00;;;;;;5060158;28;20098;-60
2021/06/16 11:53:01;;;;;;;1.45;1.10;;;28.00;45.80;;;;;;5058194;28;20016;-62
2021/06/16 11:55:41;;;;;;;1.30;0.98;;;28.10;46.00;;;;;;5053340;28;20054;-61
2021/06/16 11:58:27;;;;;;;1.50;1.10;;;28.10;46.10;;;;;;5053959;28;20640;-61
2021/06/16 12:01:07;;;;;;;1.50;1.10;;;28.10;46.10;;;;;;5054081;28;20068;-60
2021/06/16 12:03:33;;;;;;;1.17;0.90;;;28.10;46.00;;;;;;5051290;28;20270;-60
2021/06/16 12:06:07;;;;;;;1.27;1.00;;;28.10;46.00;;;;;;5055777;28;20035;-61
2021/06/16 12:08:34;;;;;;;1.92;1.00;;;28.10;46.00;;;;;;5050702;28;20420;-61
2021/06/16 12:11:01;;;;;;;1.25;0.93;;;28.20;46.00;;;;;;5054997;28;20163;-61
2021/06/16 12:13:27;;;;;;;1.33;1.00;;;28.20;45.80;;;;;;5053558;28;20056;-60
2021/06/16 12:15:53;;;;;;;1.33;1.00;;;28.30;45.80;;;;;;5056221;28;20036;-60
2021/06/16 12:18:19;;;;;;;1.40;0.90;;;28.30;45.80;;;;;;5053887;28;20032;-60
2021/06/16 12:20:54;;;;;;;1.25;0.90;;;28.30;45.70;;;;;;5064269;28;20044;-62
2021/06/16 12:23:28;;;;;;;1.27;1.00;;;28.30;45.60;;;;;;5052505;28;20040;-61
2021/06/16 12:26:17;;;;;;;1.20;1.00;;;28.40;45.70;;;;;;5056137;28;20017;-59
2021/06/16 12:28:48;;;;;;;3.00;1.05;;;28.40;45.60;;;;;;5052391;28;20033;-61
2021/06/16 12:31:31;;;;;;;1.45;1.00;;;28.40;45.60;;;;;;5056498;28;20541;-60
2021/06/16 12:36:25;;;;;;;1.23;1.00;;;28.40;45.70;;;;;;5051746;28;20036;-61
2021/06/16 12:39:13;;;;;;;1.05;0.90;;;28.40;45.60;;;;;;5057035;28;20033;-60
2021/06/16 12:41:53;;;;;;;1.20;1.00;;;28.50;45.80;;;;;;5055503;28;20028;-61
2021/06/16 12:44:26;;;;;;;1.10;0.90;;;28.50;45.70;;;;;;5059373;28;20036;-60
2021/06/16 12:46:54;;;;;;;1.80;0.98;;;28.50;45.90;;;;;;5053821;28;20024;-62
2021/06/16 12:49:21;;;;;;;1.55;1.10;;;28.60;45.90;;;;;;5062060;28;20097;-60
2021/06/16 12:51:51;;;;;;;1.52;1.00;;;28.60;46.00;;;;;;5054640;28;20035;-61
2021/06/16 12:54:34;;;;;;;1.40;1.10;;;28.60;46.00;;;;;;5057264;28;20040;-60
2021/06/16 12:57:08;;;;;;;1.48;0.90;;;28.70;46.10;;;;;;5054232;28;20148;-62
2021/06/16 12:59:43;;;;;;;1.25;0.95;;;28.70;46.00;;;;;;5046693;28;20041;-60